Time;durP1;ratioP1;P1;durP2;ratioP2;P2;SDS_P1;SDS_P2;PMS_P1;PMS_P2;Temp;Humidity;BMP_temperature;BMP_pressure;BME280_temperature;BME280_humidity;BME280_pressure;Samples;Min_cycle;Max_cycle;Signal;HPM_P1;HPM_P2
2023/04/25 00:00:12;;;;;;;;;;;;;;;30.24;63.28;100749.84;5086035;27;69184;-52
2023/04/25 00:02:42;;;;;;;;;;;;;;;30.32;63.38;100754.16;5089329;27;64978;-50
2023/04/25 00:05:14;;;;;;;;;;;;;;;30.36;63.16;100762.66;5089168;27;69793;-51
2023/04/25 00:07:45;;;;;;;;;;;;;;;30.41;63.56;100757.44;5095209;27;67101;-51
2023/04/25 00:10:16;;;;;;;;;;;;;;;30.45;63.04;100759.47;5088902;27;69245;-50
2023/04/25 00:12:47;;;;;;;;;;;;;;;30.47;63.21;100773.59;5088324;27;65914;-50
2023/04/25 00:15:17;;;;;;;;;;;;;;;30.53;63.14;100768.34;5088077;27;69100;-51
2023/04/25 00:17:48;;;;;;;;;;;;;;;30.57;63.58;100783.94;5091261;27;66078;-50
2023/04/25 00:20:18;;;;;;;;;;;;;;;30.60;63.27;100783.50;5095078;27;70756;-50
2023/04/25 00:22:48;;;;;;;;;;;;;;;30.63;63.81;100787.66;5087272;27;66705;-50
2023/04/25 00:25:19;;;;;;;;;;;;;;;30.65;63.71;100801.81;5090944;27;70025;-48
2023/04/25 00:27:50;;;;;;;;;;;;;;;30.68;63.12;100802.19;5093992;27;65918;-51
2023/04/25 00:30:20;;;;;;;;;;;;;;;30.72;63.77;100807.97;5088842;27;70033;-51
2023/04/25 00:32:50;;;;;;;;;;;;;;;30.76;63.69;100813.78;5090439;27;65708;-52
2023/04/25 00:35:21;;;;;;;;;;;;;;;30.78;63.80;100814.38;5105325;27;70750;-51
2023/04/25 00:37:51;;;;;;;;;;;;;;;30.82;63.25;100829.19;5078413;27;65105;-52
2023/04/25 00:40:21;;;;;;;;;;;;;;;30.84;63.80;100837.91;5090421;27;69707;-50
2023/04/25 00:42:52;;;;;;;;;;;;;;;30.86;63.90;100846.66;5086868;27;65626;-51
2023/04/25 00:45:27;;;;;;;;;;;;;;;30.89;62.92;100840.78;5096058;27;70577;-51
2023/04/25 00:47:57;;;;;;;;;;;;;;;30.91;62.83;100844.94;5097941;27;66923;-50
2023/04/25 00:50:27;;;;;;;;;;;;;;;30.95;62.76;100842.59;5091762;27;69256;-51
2023/04/25 00:52:58;;;;;;;;;;;;;;;30.97;62.60;100847.81;5087728;27;66614;-52
2023/04/25 00:55:35;;;;;;;;;;;;;;;30.99;62.23;100841.13;5044318;27;3491041;-53
2023/04/25 00:58:07;;;;;;;;;;;;;;;31.02;62.06;100839.84;5166119;27;69829;-53
2023/04/25 01:00:37;;;;;;;;;;;;;;;31.03;61.36;100844.19;5171393;27;65528;-52
2023/04/25 01:03:07;;;;;;;;;;;;;;;31.05;61.71;100851.06;5140446;27;70001;-52
2023/04/25 01:05:39;;;;;;;;;;;;;;;31.07;61.32;100846.25;5161998;27;65554;-51
2023/04/25 01:08:10;;;;;;;;;;;;;;;31.10;61.04;100853.13;5143189;27;69132;-52
2023/04/25 01:10:40;;;;;;;;;;;;;;;31.11;61.22;100850.16;5159127;27;66503;-51
2023/04/25 01:13:10;;;;;;;;;;;;;;;31.11;61.33;100855.59;5168431;27;70508;-51
2023/04/25 01:15:41;;;;;;;;;;;;;;;31.14;60.90;100857.03;5162670;27;65369;-51
2023/04/25 01:18:12;;;;;;;;;;;;;;;31.19;60.56;100862.59;5166755;27;69912;-52
2023/04/25 01:20:42;;;;;;;;;;;;;;;31.21;60.68;100859.69;5150573;27;66502;-52
2023/04/25 01:23:13;;;;;;;;;;;;;;;31.24;60.21;100864.66;5163022;27;70230;-51
2023/04/25 01:25:45;;;;;;;;;;;;;;;31.26;60.66;100857.09;5149330;27;65468;-51
2023/04/25 01:28:15;;;;;;;;;;;;;;;31.28;59.97;100860.44;5149843;27;70654;-51
2023/04/25 01:30:47;;;;;;;;;;;;;;;31.30;60.53;100863.75;5165354;27;66020;-51
2023/04/25 01:33:17;;;;;;;;;;;;;;;31.31;60.31;100860.81;5143060;27;71222;-52
2023/04/25 01:35:47;;;;;;;;;;;;;;;31.32;60.25;100864.38;5166520;27;67060;-52
2023/04/25 01:38:20;;;;;;;;;;;;;;;31.36;59.64;100852.03;5148070;27;70276;-53
2023/04/25 01:40:51;;;;;;;;;;;;;;;31.38;60.06;100861.63;5166509;27;66454;-52
2023/04/25 01:43:22;;;;;;;;;;;;;;;31.41;59.61;100859.50;5150214;27;69934;-51
2023/04/25 01:45:53;;;;;;;;;;;;;;;31.23;59.58;100834.03;5168345;27;66218;-50
2023/04/25 01:48:23;;;;;;;;;;;;;;;31.45;59.75;100856.09;5139925;27;69229;-51
2023/04/25 01:50:53;;;;;;;;;;;;;;;31.48;59.41;100861.09;5147903;27;66995;-52
2023/04/25 01:53:24;;;;;;;;;;;;;;;31.50;59.34;100856.25;5121704;27;70295;-53
2023/04/25 01:55:55;;;;;;;;;;;;;;;31.52;59.38;100859.59;5125277;27;65719;-51
2023/04/25 01:58:28;;;;;;;;;;;;;;;31.55;59.22;100856.44;5130361;27;70604;-51
2023/04/25 02:01:30;;;;;;;;;;;;;;;31.58;59.20;100855.97;5071709;27;65457;-51
2023/04/25 02:04:23;;;;;;;;;;;;;;;31.60;59.44;100847.63;5144595;27;70594;-51
2023/04/25 02:06:54;;;;;;;;;;;;;;;31.64;59.29;100853.41;5133189;27;66038;-53
2023/04/25 02:09:26;;;;;;;;;;;;;;;31.46;59.18;100819.84;5113609;27;68761;-51
2023/04/25 02:11:58;;;;;;;;;;;;;;;31.69;59.05;100856.28;5125888;27;66262;-51
2023/04/25 02:14:35;;;;;;;;;;;;;;;31.72;58.84;100851.22;5106505;27;70352;-51
2023/04/25 02:17:26;;;;;;;;;;;;;;;31.75;59.15;100856.19;5119696;27;65484;-50
2023/04/25 02:19:56;;;;;;;;;;;;;;;31.78;58.89;100860.34;5121718;27;69969;-51
2023/04/25 02:22:26;;;;;;;;;;;;;;;31.80;59.03;100853.63;5132624;27;65628;-52
2023/04/25 02:24:57;;;;;;;;;;;;;;;31.84;58.55;100862.13;5118531;27;69742;-52
2023/04/25 02:27:28;;;;;;;;;;;;;;;31.86;58.57;100857.31;5106822;27;65654;-51
2023/04/25 02:29:58;;;;;;;;;;;;;;;31.89;58.58;100856.03;5130261;27;69945;-50
2023/04/25 02:32:28;;;;;;;;;;;;;;;31.91;58.58;100860.22;5119347;27;65537;-52
2023/04/25 02:35:03;;;;;;;;;;;;;;;31.94;58.24;100857.03;5126040;27;70554;-51
2023/04/25 02:37:34;;;;;;;;;;;;;;;31.96;58.21;100852.22;5120135;27;66636;-51
2023/04/25 02:40:05;;;;;;;;;;;;;;;32.00;58.22;100853.41;5114641;27;69445;-52
2023/04/25 02:42:35;;;;;;;;;;;;;;;32.02;58.39;100851.31;5137498;27;66600;-50
2023/04/25 02:45:06;;;;;;;;;;;;;;;32.05;58.11;100845.41;5139719;27;69387;-54
2023/04/25 02:47:37;;;;;;;;;;;;;;;32.08;57.99;100841.41;5120436;27;64628;-52
2023/04/25 02:50:07;;;;;;;;;;;;;;;32.12;57.79;100839.06;5133739;27;70371;-51
2023/04/25 02:52:40;;;;;;;;;;;;;;;32.13;57.52;100841.56;5125492;27;67012;-54
2023/04/25 02:55:17;;;;;;;;;;;;;;;32.17;57.68;100839.19;5115939;27;70378;-51
2023/04/25 02:57:48;;;;;;;;;;;;;;;32.19;57.37;100835.22;5124868;27;66332;-53
2023/04/25 03:00:30;;;;;;;;;;;;;;;32.22;57.33;100833.91;5129278;27;70332;-52
2023/04/25 03:03:00;;;;;;;;;;;;;;;32.24;57.43;100829.09;5134201;27;65623;-52
2023/04/25 03:05:31;;;;;;;;;;;;;;;32.25;57.46;100817.16;5110844;27;70703;-52
2023/04/25 03:08:01;;;;;;;;;;;;;;;32.29;57.28;100826.53;5112621;27;66060;-52
2023/04/25 03:10:33;;;;;;;;;;;;;;;32.31;57.19;100821.66;5111409;27;69959;-53
2023/04/25 03:13:07;;;;;;;;;;;;;;;32.34;57.00;100820.38;5113320;27;66174;-52
2023/04/25 03:15:38;;;;;;;;;;;;;;;32.36;57.07;100815.56;5112177;27;70301;-51
2023/04/25 03:18:08;;;;;;;;;;;;;;;32.37;56.72;100803.63;5124749;27;65988;-51
2023/04/25 03:20:41;;;;;;;;;;;;;;;32.38;56.63;100800.69;5107043;27;70834;-51
2023/04/25 03:23:11;;;;;;;;;;;;;;;32.41;57.00;100807.53;5108322;27;65861;-53
2023/04/25 03:25:43;;;;;;;;;;;;;;;32.43;56.80;100813.53;5113208;27;70368;-51
2023/04/25 03:28:13;;;;;;;;;;;;;;;32.44;56.38;100805.19;5131987;27;66134;-49
2023/04/25 03:30:44;;;;;;;;;;;;;;;32.47;56.44;100804.75;5103840;27;70562;-51
2023/04/25 03:33:14;;;;;;;;;;;;;;;32.47;56.48;100787.63;5131984;27;66628;-51
2023/04/25 03:35:44;;;;;;;;;;;;;;;32.51;56.28;100788.81;5113092;27;69570;-51
2023/04/25 03:38:15;;;;;;;;;;;;;;;32.55;56.29;100786.47;5104982;27;66658;-51
2023/04/25 03:40:46;;;;;;;;;;;;;;;32.55;56.09;100781.88;5115135;27;70259;-52
2023/04/25 03:43:37;;;;;;;;;;;;;;;32.57;56.02;100777.03;5129264;27;66407;-51
2023/04/25 03:46:11;;;;;;;;;;;;;;;32.60;56.08;100765.69;5112141;27;69502;-51
2023/04/25 03:48:43;;;;;;;;;;;;;;;32.63;55.88;100764.41;5136696;27;66193;-50
2023/04/25 03:51:20;;;;;;;;;;;;;;;32.65;55.92;100767.69;5112026;27;70515;-51
2023/04/25 03:53:50;;;;;;;;;;;;;;;32.68;55.58;100775.38;5104138;27;66403;-52
2023/04/25 03:56:21;;;;;;;;;;;;;;;32.70;55.60;100765.09;5127430;27;70005;-52
2023/04/25 03:59:00;;;;;;;;;;;;;;;32.72;55.42;100754.84;5110115;27;66178;-52
2023/04/25 04:01:31;;;;;;;;;;;;;;;32.76;55.44;100752.47;5101214;27;70892;-51
2023/04/25 04:04:02;;;;;;;;;;;;;;;32.77;55.35;100744.09;5131244;27;65209;-52
2023/04/25 04:06:33;;;;;;;;;;;;;;;32.81;55.17;100750.69;5110455;27;69542;-51
2023/04/25 04:09:11;;;;;;;;;;;;;;;32.84;55.20;100739.34;5125756;27;66861;-51
2023/04/25 04:11:43;;;;;;;;;;;;;;;32.86;55.16;100737.22;5102071;27;70270;-51
2023/04/25 04:14:14;;;;;;;;;;;;;;;32.89;54.88;100731.31;5131125;27;66827;-52
2023/04/25 04:16:46;;;;;;;;;;;;;;;32.92;54.51;100719.97;5109592;27;69947;-53
2023/04/25 04:19:16;;;;;;;;;;;;;;;32.95;54.50;100721.38;5107223;27;66090;-53
2023/04/25 04:21:58;;;;;;;;;;;;;;;32.98;54.40;100717.38;5110338;27;70955;-51
2023/04/25 04:24:29;;;;;;;;;;;;;;;33.00;54.64;100723.44;5073324;27;66734;-53
2023/04/25 04:27:03;;;;;;;;;;;;;;;33.03;54.59;100720.22;5094787;27;69986;-52
2023/04/25 04:29:55;;;;;;;;;;;;;;;33.06;54.23;100712.41;5135458;27;66634;-52
2023/04/25 04:32:33;;;;;;;;;;;;;;;33.09;54.11;100716.56;5118092;27;70285;-51
2023/04/25 04:35:06;;;;;;;;;;;;;;;33.12;53.99;100710.63;5107262;27;66415;-51
2023/04/25 04:37:36;;;;;;;;;;;;;;;33.15;54.12;100707.44;5117924;27;70456;-53
2023/04/25 04:40:09;;;;;;;;;;;;;;;33.17;53.73;100699.88;5117745;27;66677;-51
2023/04/25 04:42:59;;;;;;;;;;;;;;;33.20;53.80;100691.22;5114633;27;69257;-53
2023/04/25 04:45:45;;;;;;;;;;;;;;;33.22;53.70;100691.81;5110840;27;66825;-51
2023/04/25 04:48:34;;;;;;;;;;;;;;;33.26;53.61;100692.16;5134300;27;70728;-50
2023/04/25 04:51:39;;;;;;;;;;;;;;;33.28;53.61;100690.84;5101517;27;66835;-51
2023/04/25 04:54:38;;;;;;;;;;;;;;;33.31;53.22;100684.94;5117238;27;70580;-53
2023/04/25 04:57:28;;;;;;;;;;;;;;;33.32;53.42;100673.00;5113560;27;66034;-52
2023/04/25 05:00:12;;;;;;;;;;;;;;;33.36;53.40;100662.47;5106354;27;70015;-51
2023/04/25 05:02:51;;;;;;;;;;;;;;;33.40;53.55;100662.81;5128215;27;66841;-52
2023/04/25 05:05:41;;;;;;;;;;;;;;;33.43;53.10;100651.44;5093894;27;69891;-51
2023/04/25 05:08:30;;;;;;;;;;;;;;;33.46;52.95;100649.06;5114334;27;65572;-50
2023/04/25 05:11:20;;;;;;;;;;;;;;;33.48;52.92;100640.66;5122837;27;69756;-52
2023/04/25 05:14:10;;;;;;;;;;;;;;;33.50;52.76;100643.97;5111787;27;67028;-51
2023/04/25 05:16:59;;;;;;;;;;;;;;;33.55;52.72;100641.38;5128768;27;70058;-51
2023/04/25 05:19:48;;;;;;;;;;;;;;;33.58;52.72;100640.88;5106554;27;66373;-51
2023/04/25 05:22:38;;;;;;;;;;;;;;;33.62;52.55;100636.59;5127775;27;69639;-52
2023/04/25 05:25:16;;;;;;;;;;;;;;;33.63;52.56;100632.81;5105716;27;67032;-51
2023/04/25 05:28:14;;;;;;;;;;;;;;;33.68;52.62;100630.16;5118269;27;70527;-51
2023/04/25 05:30:59;;;;;;;;;;;;;;;33.70;52.71;100628.03;5086935;27;65870;-51
2023/04/25 05:33:36;;;;;;;;;;;;;;;33.73;52.34;100626.72;5130732;27;69147;-51
2023/04/25 05:36:07;;;;;;;;;;;;;;;33.75;52.34;100614.53;5113649;27;66508;-50
2023/04/25 05:38:37;;;;;;;;;;;;;;;33.77;52.34;100601.50;5113590;27;70039;-50
2023/04/25 05:41:46;;;;;;;;;;;;;;;33.81;52.06;100597.22;5079445;27;66380;-51
2023/04/25 05:44:39;;;;;;;;;;;;;;;33.86;52.33;100588.31;5049523;27;69809;-51
2023/04/25 05:47:29;;;;;;;;;;;;;;;33.90;52.36;100583.19;5125210;27;66042;-50
2023/04/25 05:50:20;;;;;;;;;;;;;;;33.92;52.06;100573.72;5134168;27;68905;-51
2023/04/25 05:52:54;;;;;;;;;;;;;;;33.94;52.07;100570.75;5081588;27;66453;-53
2023/04/25 05:55:39;;;;;;;;;;;;;;;34.00;51.68;100567.03;5113689;27;70701;-52
2023/04/25 05:58:23;;;;;;;;;;;;;;;34.02;51.63;100557.53;5103313;27;66654;-51
2023/04/25 06:00:55;;;;;;;;;;;;;;;34.07;51.97;100551.38;5113518;27;69978;-50
2023/04/25 06:03:25;;;;;;;;;;;;;;;34.11;51.74;100546.28;5131749;27;66252;-49
2023/04/25 06:05:58;;;;;;;;;;;;;;;34.14;51.73;100552.03;5110403;27;70840;-51
2023/04/25 06:08:28;;;;;;;;;;;;;;;34.18;51.33;100539.53;5132048;27;66988;-50
2023/04/25 06:10:58;;;;;;;;;;;;;;;34.21;51.48;100530.91;5135365;27;70320;-50
2023/04/25 06:13:28;;;;;;;;;;;;;;;34.25;51.46;100521.16;5113849;27;66812;-50
2023/04/25 06:15:59;;;;;;;;;;;;;;;34.29;51.25;100512.47;5124308;27;69328;-50
2023/04/25 06:18:29;;;;;;;;;;;;;;;34.36;51.39;100515.84;5131190;27;66466;-51
2023/04/25 06:20:59;;;;;;;;;;;;;;;34.39;51.19;100504.44;5107564;27;70020;-51
2023/04/25 06:23:30;;;;;;;;;;;;;;;34.43;51.17;100495.50;5118827;27;66494;-51
2023/04/25 06:26:07;;;;;;;;;;;;;;;34.48;50.73;100481.13;5108418;27;69078;-51
2023/04/25 06:28:40;;;;;;;;;;;;;;;34.52;50.51;100493.16;5092019;27;66147;-51
2023/04/25 06:31:10;;;;;;;;;;;;;;;34.57;50.45;100485.06;5118210;27;70333;-51
2023/04/25 06:33:43;;;;;;;;;;;;;;;34.63;50.69;100485.94;5106997;27;66359;-51
2023/04/25 06:36:14;;;;;;;;;;;;;;;34.67;50.21;100477.00;5127497;27;69765;-56
2023/04/25 06:38:46;;;;;;;;;;;;;;;34.72;50.21;100470.00;5129223;27;66307;-51
2023/04/25 06:41:17;;;;;;;;;;;;;;;34.75;49.85;100464.03;5105086;27;70683;-50
2023/04/25 06:43:48;;;;;;;;;;;;;;;34.80;49.58;100455.88;5111348;27;66952;-51
2023/04/25 06:46:44;;;;;;;;;;;;;;;34.87;49.45;100464.69;5121390;27;70705;-51
2023/04/25 06:49:15;;;;;;;;;;;;;;;34.92;49.88;100451.09;5098901;27;66189;-50
2023/04/25 06:51:46;;;;;;;;;;;;;;;34.96;49.60;100456.84;5116008;27;71501;-50
2023/04/25 06:54:16;;;;;;;;;;;;;;;35.00;49.49;100450.63;5131741;27;66806;-50
2023/04/25 06:56:56;;;;;;;;;;;;;;;35.05;49.53;100447.97;5116092;27;69719;-52
2023/04/25 06:59:28;;;;;;;;;;;;;;;35.10;48.91;100445.31;5113735;27;66459;-52
2023/04/25 07:01:58;;;;;;;;;;;;;;;35.16;49.00;100448.06;5120568;27;69710;-51
2023/04/25 07:04:28;;;;;;;;;;;;;;;35.20;48.83;100444.56;5109478;27;66009;-51
2023/04/25 07:07:02;;;;;;;;;;;;;;;35.24;49.30;100429.31;5108163;27;70058;-51
2023/04/25 07:09:45;;;;;;;;;;;;;;;35.28;49.01;100430.47;5115950;27;67013;-51
2023/04/25 07:12:16;;;;;;;;;;;;;;;35.34;48.89;100428.59;5128303;27;69990;-52
2023/04/25 07:14:46;;;;;;;;;;;;;;;35.40;48.95;100427.53;5105674;27;65325;-50
2023/04/25 07:17:16;;;;;;;;;;;;;;;35.47;49.05;100427.31;5107618;27;70541;-50
2023/04/25 07:19:47;;;;;;;;;;;;;;;35.51;48.87;100418.34;5120374;27;66351;-51
2023/04/25 07:22:18;;;;;;;;;;;;;;;35.55;48.63;100399.53;5108820;27;69941;-51
2023/04/25 07:24:48;;;;;;;;;;;;;;;35.60;48.16;100409.69;5122939;27;66044;-50
2023/04/25 07:27:21;;;;;;;;;;;;;;;35.63;48.17;100409.16;5114065;27;70769;-51
2023/04/25 07:29:57;;;;;;;;;;;;;;;35.68;48.58;100395.53;5137263;27;66680;-52
2023/04/25 07:32:27;;;;;;;;;;;;;;;35.71;48.05;100400.47;5141656;27;70334;-50
2023/04/25 07:34:57;;;;;;;;;;;;;;;35.76;48.28;100409.50;5139942;27;67258;-50
2023/04/25 07:37:27;;;;;;;;;;;;;;;35.80;47.88;100401.59;5093136;27;69770;-53
2023/04/25 07:40:23;;;;;;;;;;;;;;;35.86;47.78;100403.28;5114377;27;66243;-51
2023/04/25 07:42:59;;;;;;;;;;;;;;;35.90;48.25;100403.56;5109246;27;70540;-51
2023/04/25 07:46:04;;;;;;;;;;;;;;;35.94;48.28;100401.94;5116852;27;66139;-51
2023/04/25 07:48:38;;;;;;;;;;;;;;;35.98;47.90;100405.78;5106523;27;70510;-51
2023/04/25 07:51:08;;;;;;;;;;;;;;;36.01;47.50;100406.06;5106312;27;66589;-53
2023/04/25 07:53:39;;;;;;;;;;;;;;;36.06;47.49;100396.31;5129196;27;70118;-52
2023/04/25 07:56:13;;;;;;;;;;;;;;;36.08;48.13;100407.75;5107271;27;66790;-52
2023/04/25 07:59:36;;;;;;;;;;;;;;;36.12;48.02;100406.16;5101910;27;70173;-50
2023/04/25 08:02:06;;;;;;;;;;;;;;;36.16;47.36;100401.78;5093015;27;66605;-50
2023/04/25 08:04:37;;;;;;;;;;;;;;;36.17;47.38;100414.38;5122751;27;69991;-51
2023/04/25 08:07:10;;;;;;;;;;;;;;;36.19;47.91;100406.72;5100722;27;65421;-51
2023/04/25 08:09:48;;;;;;;;;;;;;;;36.23;47.52;100402.38;5091639;27;69916;-51
2023/04/25 08:12:26;;;;;;;;;;;;;;;36.23;47.78;100408.63;5102744;27;66286;-51
2023/04/25 08:14:57;;;;;;;;;;;;;;;36.25;47.29;100402.94;5110858;27;69472;-51
2023/04/25 08:17:32;;;;;;;;;;;;;;;36.27;47.82;100408.91;5088223;27;66803;-51
2023/04/25 08:20:05;;;;;;;;;;;;;;;36.29;47.38;100406.75;5105872;27;70591;-51
2023/04/25 08:22:36;;;;;;;;;;;;;;;36.29;47.61;100404.00;5107912;27;66263;-51
2023/04/25 08:25:23;;;;;;;;;;;;;;;36.32;47.40;100410.84;5101792;27;69300;-51
2023/04/25 08:27:54;;;;;;;;;;;;;;;36.33;47.62;100402.41;5110319;27;66709;-51
2023/04/25 08:30:26;;;;;;;;;;;;;;;36.32;47.44;100403.47;5104217;27;69403;-51
2023/04/25 08:32:57;;;;;;;;;;;;;;;36.34;47.37;100404.03;5126848;27;66186;-51
2023/04/25 08:35:48;;;;;;;;;;;;;;;36.35;48.00;100400.19;5106617;27;70273;-51
2023/04/25 08:38:19;;;;;;;;;;;;;;;36.36;47.60;100398.28;5115242;27;66554;-52
2023/04/25 08:40:53;;;;;;;;;;;;;;;36.35;48.00;100389.28;5084672;27;69856;-51
2023/04/25 08:43:25;;;;;;;;;;;;;;;36.37;48.13;100397.22;5098738;27;66819;-52
2023/04/25 08:45:58;;;;;;;;;;;;;;;36.36;48.05;100401.88;5097337;27;69841;-51
2023/04/25 08:48:52;;;;;;;;;;;;;;;36.37;47.57;100397.22;5100457;27;65934;-52
2023/04/25 08:51:27;;;;;;;;;;;;;;;36.36;47.79;100401.88;5100942;27;70396;-51
2023/04/25 08:54:04;;;;;;;;;;;;;;;36.37;48.36;100413.59;5116903;27;65560;-51
2023/04/25 08:56:47;;;;;;;;;;;;;;;36.37;48.39;100408.97;5100132;27;70374;-52
2023/04/25 08:59:18;;;;;;;;;;;;;;;36.37;48.00;100408.97;5133645;27;66452;-52
2023/04/25 09:01:49;;;;;;;;;;;;;;;36.36;47.83;100407.31;5109738;27;69846;-51
2023/04/25 09:04:22;;;;;;;;;;;;;;;36.36;47.95;100412.78;5108784;27;66218;-51
2023/04/25 09:06:53;;;;;;;;;;;;;;;36.37;48.32;100408.97;5121579;27;69714;-50
2023/04/25 09:09:24;;;;;;;;;;;;;;;36.08;49.64;100413.22;5108894;27;66979;-44
2023/04/25 09:11:55;;;;;;;;;;;;;;;35.84;51.51;100408.19;5088680;27;69800;-44
2023/04/25 09:14:27;;;;;;;;;;;;;;;35.70;51.73;100409.75;5126582;27;66722;-45
2023/04/25 09:17:23;;;;;;;;;;;;;;;35.56;52.60;100404.75;5129209;27;70155;-43
2023/04/25 09:20:07;;;;;;;;;;;;;;;35.49;53.69;100409.59;5108553;27;66336;-45
2023/04/25 09:22:38;;;;;;;;;;;;;;;35.40;53.68;100413.91;5136035;27;70224;-46
2023/04/25 09:25:14;;;;;;;;;;;;;;;35.35;53.77;100413.84;5099013;27;65454;-46
2023/04/25 09:27:52;;;;;;;;;;;;;;;35.30;54.65;100411.09;5125352;27;70394;-45
2023/04/25 09:30:31;;;;;;;;;;;;;;;35.29;54.54;100414.91;5105334;27;67474;-44
2023/04/25 09:33:11;;;;;;;;;;;;;;;35.23;54.75;100421.41;5117619;27;70130;-46
2023/04/25 09:35:52;;;;;;;;;;;;;;;35.21;54.84;100412.66;5114353;27;66782;-43
2023/04/25 09:38:44;;;;;;;;;;;;;;;35.18;54.73;100402.28;5121369;27;69761;-46
2023/04/25 09:41:37;;;;;;;;;;;;;;;35.15;54.61;100406.34;5125957;27;66882;-44
2023/04/25 09:44:07;;;;;;;;;;;;;;;35.15;54.62;100400.91;5139443;27;68760;-45
2023/04/25 09:46:39;;;;;;;;;;;;;;;35.10;55.36;100393.53;5108004;27;66765;-42
2023/04/25 09:49:21;;;;;;;;;;;;;;;35.14;54.86;100397.34;5116710;27;70396;-45
2023/04/25 09:52:05;;;;;;;;;;;;;;;35.12;55.22;100391.34;5116917;27;65090;-44
2023/04/25 09:54:46;;;;;;;;;;;;;;;35.08;54.79;100392.97;5106263;27;70078;-42
2023/04/25 09:57:23;;;;;;;;;;;;;;;35.12;54.86;100388.63;5119627;27;66152;-43
2023/04/25 09:59:56;;;;;;;;;;;;;;;35.31;54.10;100388.22;5128988;27;69892;-43
2023/04/25 10:02:34;;;;;;;;;;;;;;;35.42;54.02;100384.47;5130535;27;65345;-42
2023/04/25 10:05:08;;;;;;;;;;;;;;;35.52;54.04;100386.41;5113197;27;69079;-44
2023/04/25 10:07:40;;;;;;;;;;;;;;;35.58;53.88;100390.88;5108818;27;65913;-44
2023/04/25 10:10:16;;;;;;;;;;;;;;;35.63;53.00;100387.34;5112987;27;70011;-44
2023/04/25 10:12:46;;;;;;;;;;;;;;;35.66;53.47;100387.66;5138829;27;66547;-44
2023/04/25 10:15:17;;;;;;;;;;;;;;;35.68;53.12;100388.19;5131825;27;70044;-45
2023/04/25 10:17:48;;;;;;;;;;;;;;;35.70;52.46;100382.47;5108419;27;66551;-42
2023/04/25 10:20:19;;;;;;;;;;;;;;;35.70;52.95;100382.47;5134406;27;68987;-45
2023/04/25 10:22:53;;;;;;;;;;;;;;;35.73;52.23;100390.13;5131341;27;66847;-45
2023/04/25 10:25:24;;;;;;;;;;;;;;;35.72;52.69;100380.31;5133992;27;69467;-45
2023/04/25 10:27:54;;;;;;;;;;;;;;;35.72;52.17;100378.38;5130549;27;65061;-45
2023/04/25 10:30:25;;;;;;;;;;;;;;;35.74;52.46;100389.84;5132132;27;70529;-45
2023/04/25 10:32:55;;;;;;;;;;;;;;;35.69;52.43;100380.81;5134223;27;66634;-45
2023/04/25 10:35:30;;;;;;;;;;;;;;;35.43;53.21;100388.81;5124915;27;69253;-44
2023/04/25 10:38:09;;;;;;;;;;;;;;;35.23;54.01;100383.25;5129461;27;66134;-44
2023/04/25 10:40:39;;;;;;;;;;;;;;;35.10;54.76;100390.81;5134943;27;70073;-44
2023/04/25 10:43:28;;;;;;;;;;;;;;;34.99;54.74;100389.00;5129028;27;66980;-44
2023/04/25 10:46:02;;;;;;;;;;;;;;;34.95;55.15;100398.00;5133868;27;70347;-43
2023/04/25 10:48:32;;;;;;;;;;;;;;;34.88;55.19;100403.63;5112660;27;65370;-43
2023/04/25 10:51:12;;;;;;;;;;;;;;;34.84;55.16;100402.53;5122410;27;69778;-45
2023/04/25 10:53:43;;;;;;;;;;;;;;;34.79;55.43;100411.47;5115638;27;65888;-46
2023/04/25 10:56:17;;;;;;;;;;;;;;;34.78;55.78;100414.47;5117490;27;69603;-44
2023/04/25 10:58:48;;;;;;;;;;;;;;;34.80;56.55;100425.91;5118681;27;66586;-45
2023/04/25 11:01:22;;;;;;;;;;;;;;;34.91;55.82;100430.41;5121576;27;69997;-44
2023/04/25 11:03:57;;;;;;;;;;;;;;;35.01;55.36;100429.66;5123559;27;66605;-45
2023/04/25 11:07:00;;;;;;;;;;;;;;;35.09;55.11;100437.38;5122217;27;70423;-43
2023/04/25 11:09:35;;;;;;;;;;;;;;;35.14;55.31;100440.97;5068623;27;64585;-45
2023/04/25 11:12:07;;;;;;;;;;;;;;;35.19;55.35;100450.25;5120261;27;69126;-44
2023/04/25 11:14:38;;;;;;;;;;;;;;;35.21;55.37;100461.75;5105628;27;66406;-44
2023/04/25 11:17:13;;;;;;;;;;;;;;;35.22;55.34;100463.41;5116388;27;69972;-43
2023/04/25 11:19:43;;;;;;;;;;;;;;;35.24;54.82;100474.84;5105118;27;65379;-44
2023/04/25 11:22:13;;;;;;;;;;;;;;;35.23;55.20;100482.22;5118816;27;70055;-44
2023/04/25 11:24:44;;;;;;;;;;;;;;;35.25;54.97;100479.25;5099891;27;68204;-45
2023/04/25 11:27:14;;;;;;;;;;;;;;;35.23;55.12;100481.41;5102409;27;70160;-44
2023/04/25 11:29:45;;;;;;;;;;;;;;;35.25;54.84;100481.97;5116479;27;66711;-45
2023/04/25 11:32:16;;;;;;;;;;;;;;;35.24;54.88;100485.75;5118978;27;70274;-44
2023/04/25 11:34:48;;;;;;;;;;;;;;;35.24;55.18;100493.94;5122661;27;66724;-46
2023/04/25 11:37:19;;;;;;;;;;;;;;;35.24;55.27;100493.94;5123237;27;69523;-44
2023/04/25 11:39:51;;;;;;;;;;;;;;;35.21;54.97;100499.91;5084484;27;66627;-43
2023/04/25 11:42:23;;;;;;;;;;;;;;;35.19;55.32;100497.47;5123906;27;69862;-43
2023/04/25 11:44:53;;;;;;;;;;;;;;;35.19;55.38;100496.63;5118884;27;66007;-45
2023/04/25 11:47:33;;;;;;;;;;;;;;;35.18;55.01;100501.25;5116776;27;70368;-43
2023/04/25 11:50:07;;;;;;;;;;;;;;;35.14;55.68;100509.13;5081471;27;65382;-44
2023/04/25 11:52:41;;;;;;;;;;;;;;;35.12;55.38;100508.56;5109423;27;68933;-45
2023/04/25 11:55:11;;;;;;;;;;;;;;;35.09;56.00;100509.06;5118092;27;66924;-44
2023/04/25 11:57:41;;;;;;;;;;;;;;;35.09;55.42;100506.34;5112238;27;70271;-45
2023/04/25 12:00:20;;;;;;;;;;;;;;;35.09;55.43;100508.25;5109640;27;66078;-45
2023/04/25 12:02:53;;;;;;;;;;;;;;;35.05;56.20;100507.94;5117850;27;68951;-44
2023/04/25 12:05:25;;;;;;;;;;;;;;;35.03;56.25;100512.00;5119869;27;65763;-45
2023/04/25 12:08:14;;;;;;;;;;;;;;;35.02;56.14;100511.19;5123348;27;70255;-45
2023/04/25 12:10:49;;;;;;;;;;;;;;;34.99;56.03;100508.94;5116082;27;66670;-45
2023/04/25 12:13:20;;;;;;;;;;;;;;;34.99;56.45;100514.38;5120524;27;70545;-44
2023/04/25 12:15:50;;;;;;;;;;;;;;;34.96;56.26;100517.63;5099483;27;66484;-43
2023/04/25 12:18:23;;;;;;;;;;;;;;;34.95;56.13;100512.47;5101343;27;70410;-43
2023/04/25 12:20:58;;;;;;;;;;;;;;;34.84;58.28;100525.16;5102305;27;66915;-43
2023/04/25 12:23:28;;;;;;;;;;;;;;;34.83;57.94;100539.88;5116618;27;69354;-45
2023/04/25 12:25:59;;;;;;;;;;;;;;;34.85;57.53;100559.47;5079310;27;65788;-42
2023/04/25 12:28:32;;;;;;;;;;;;;;;34.83;57.73;100561.66;5115386;27;69527;-42
2023/04/25 12:31:04;;;;;;;;;;;;;;;34.83;57.89;100564.38;5118972;27;66167;-42
2023/04/25 12:33:35;;;;;;;;;;;;;;;34.81;57.79;100570.06;5112458;27;69625;-42
2023/04/25 12:36:10;;;;;;;;;;;;;;;34.82;57.85;100573.63;5115485;27;66025;-45
2023/04/25 12:38:43;;;;;;;;;;;;;;;34.80;57.92;100575.78;5113439;27;69725;-43
2023/04/25 12:41:13;;;;;;;;;;;;;;;34.79;57.97;100574.13;5113881;27;66688;-43
2023/04/25 12:43:44;;;;;;;;;;;;;;;34.77;58.08;100570.81;5117333;27;70337;-42
2023/04/25 12:46:14;;;;;;;;;;;;;;;34.75;57.49;100576.56;5115476;27;66359;-43
2023/04/25 12:48:45;;;;;;;;;;;;;;;34.54;57.87;100588.22;5099071;27;69750;-42
2023/04/25 12:51:15;;;;;;;;;;;;;;;34.23;55.55;100591.34;5116677;27;66248;-44
2023/04/25 12:53:45;;;;;;;;;;;;;;;33.88;53.36;100604.38;5114098;27;70241;-44
2023/04/25 12:56:15;;;;;;;;;;;;;;;33.61;51.88;100607.75;5102959;27;66129;-43
2023/04/25 12:58:48;;;;;;;;;;;;;;;33.38;50.14;100614.94;5120486;27;70195;-43
2023/04/25 13:01:18;;;;;;;;;;;;;;;33.17;49.16;100618.34;5119082;27;67391;-44
2023/04/25 13:03:49;;;;;;;;;;;;;;;33.05;48.23;100620.28;5117244;27;70045;-44
2023/04/25 13:06:20;;;;;;;;;;;;;;;32.92;48.35;100616.72;5101698;27;67345;-43
2023/04/25 13:08:50;;;;;;;;;;;;;;;32.76;47.97;100614.75;5111874;27;69637;-44
2023/04/25 13:11:22;;;;;;;;;;;;;;;32.67;47.77;100622.44;5119793;27;66250;-45
2023/04/25 13:13:52;;;;;;;;;;;;;;;32.62;49.15;100632.38;5111881;27;69753;-44